Time;durP1;ratioP1;P1;durP2;ratioP2;P2;SDS_P1;SDS_P2;PMS_P1;PMS_P2;Temp;Humidity;BMP_temperature;BMP_pressure;BME280_temperature;BME280_humidity;BME280_pressure;Samples;Min_cycle;Max_cycle;Signal;HPM_P1;HPM_P2
2022/06/21 00:00:19;;;;;;;5.53;3.13;;;13.30;97.30;;;;;;5014849;28;20796;-86
2022/06/21 00:02:46;;;;;;;6.37;3.13;;;13.30;97.30;;;;;;4993580;28;20538;-86
2022/06/21 00:05:23;;;;;;;4.60;3.20;;;13.20;97.30;;;;;;5012645;28;20810;-87
2022/06/21 00:07:49;;;;;;;4.73;3.13;;;13.20;97.30;;;;;;5005422;28;20969;-86
2022/06/21 00:10:18;;;;;;;4.60;3.17;;;13.20;97.30;;;;;;5010883;28;20462;-86
2022/06/21 00:12:44;;;;;;;4.73;3.27;;;13.10;97.30;;;;;;5014671;28;20573;-86
2022/06/21 00:15:11;;;;;;;5.07;3.70;;;13.10;97.30;;;;;;5000498;28;20415;-86
2022/06/21 00:17:40;;;;;;;5.33;2.80;;;13.00;97.30;;;;;;5008064;28;20780;-86
2022/06/21 00:20:07;;;;;;;8.20;3.77;;;13.00;97.30;;;;;;5029342;28;20419;-86
2022/06/21 00:22:33;;;;;;;7.47;3.43;;;13.00;97.30;;;;;;5014656;28;20419;-86
2022/06/21 00:24:58;;;;;;;8.30;4.30;;;13.00;97.30;;;;;;5011035;28;20507;-86
2022/06/21 00:27:24;;;;;;;9.80;3.70;;;12.90;97.30;;;;;;5005100;28;20299;-86
2022/06/21 00:29:49;;;;;;;5.73;3.40;;;12.90;97.30;;;;;;5011208;28;20201;-88
2022/06/21 00:32:19;;;;;;;7.80;3.33;;;12.80;97.30;;;;;;5014888;28;20676;-87
2022/06/21 00:34:46;;;;;;;9.10;3.50;;;12.80;97.30;;;;;;4999280;28;20564;-86
2022/06/21 00:37:18;;;;;;;5.80;3.97;;;12.80;97.30;;;;;;4995709;28;20433;-87
2022/06/21 00:39:44;;;;;;;9.10;4.23;;;12.80;97.30;;;;;;5000115;28;20457;-88
2022/06/21 00:42:26;;;;;;;6.33;3.83;;;12.80;97.30;;;;;;5004119;28;20451;-87
2022/06/21 00:45:15;;;;;;;6.20;3.93;;;12.70;97.30;;;;;;4995407;28;20430;-87
2022/06/21 00:47:43;;;;;;;4.97;3.73;;;12.70;97.30;;;;;;5010767;28;20825;-87
2022/06/21 00:50:23;;;;;;;7.67;3.60;;;12.70;97.30;;;;;;5014346;28;21058;-88
2022/06/21 00:53:11;;;;;;;4.87;3.23;;;12.70;97.30;;;;;;5000968;28;20470;-86
2022/06/21 00:55:43;;;;;;;6.53;3.83;;;12.60;97.30;;;;;;5001721;28;20424;-87
2022/06/21 00:58:14;;;;;;;5.20;3.43;;;12.60;97.30;;;;;;5011759;28;20491;-87
2022/06/21 01:00:52;;;;;;;6.50;3.20;;;12.60;97.30;;;;;;5010378;28;20930;-87
2022/06/21 01:03:23;;;;;;;7.20;3.93;;;12.60;97.30;;;;;;5011991;28;21032;-87
2022/06/21 01:05:50;;;;;;;6.03;3.97;;;12.60;97.30;;;;;;5013537;28;20782;-88
2022/06/21 01:08:25;;;;;;;4.87;3.57;;;12.60;97.30;;;;;;5013738;28;20835;-88
2022/06/21 01:10:57;;;;;;;7.67;3.70;;;12.50;97.30;;;;;;5029686;28;20459;-88
2022/06/21 01:13:26;;;;;;;7.97;3.67;;;12.40;97.30;;;;;;5014240;28;20415;-88
2022/06/21 01:15:54;;;;;;;7.60;4.00;;;12.40;97.30;;;;;;5013856;28;20483;-88
2022/06/21 01:18:22;;;;;;;9.40;4.00;;;12.40;97.30;;;;;;5014238;28;20522;-87
2022/06/21 01:20:51;;;;;;;5.83;3.50;;;12.30;97.30;;;;;;5032182;28;20788;-87
2022/06/21 01:23:38;;;;;;;8.73;4.30;;;12.30;97.30;;;;;;5001452;28;20439;-87
2022/06/21 01:26:35;;;;;;;7.23;3.97;;;12.30;97.30;;;;;;5031833;28;20435;-87
2022/06/21 01:29:02;;;;;;;8.90;3.17;;;12.20;97.30;;;;;;4994427;28;20534;-87
2022/06/21 01:31:29;;;;;;;7.20;3.77;;;12.20;97.30;;;;;;5019706;28;20726;-87
2022/06/21 01:33:54;;;;;;;7.80;4.40;;;12.10;97.30;;;;;;5003542;28;20570;-88
2022/06/21 01:36:26;;;;;;;6.70;3.43;;;12.10;97.30;;;;;;5010380;28;20816;-87
2022/06/21 01:39:03;;;;;;;8.80;4.07;;;12.00;97.30;;;;;;5005153;28;20439;-87
2022/06/21 01:41:46;;;;;;;8.03;3.60;;;12.00;97.30;;;;;;5007328;28;20413;-87
2022/06/21 01:44:18;;;;;;;8.83;3.93;;;12.00;97.30;;;;;;4996221;28;20824;-87
2022/06/21 01:46:45;;;;;;;9.10;4.13;;;12.00;97.30;;;;;;5013482;28;20474;-87
2022/06/21 01:49:15;;;;;;;10.93;4.23;;;12.00;97.30;;;;;;5013225;28;20538;-87
2022/06/21 01:51:50;;;;;;;6.77;3.97;;;11.90;97.30;;;;;;5003890;28;20412;-87
2022/06/21 01:54:19;;;;;;;14.40;4.97;;;11.90;97.30;;;;;;5010860;28;20480;-87
2022/06/21 01:56:48;;;;;;;4.87;3.70;;;11.90;97.30;;;;;;5003816;28;20440;-87
2022/06/21 01:59:28;;;;;;;5.90;4.20;;;11.80;97.30;;;;;;4998234;28;20428;-87
2022/06/21 02:02:04;;;;;;;5.53;3.63;;;11.80;97.30;;;;;;5013326;28;20419;-87
2022/06/21 02:04:40;;;;;;;5.83;4.23;;;11.80;97.30;;;;;;5010126;28;21007;-87
2022/06/21 02:07:10;;;;;;;14.83;4.50;;;11.80;97.30;;;;;;5013163;28;20478;-86
2022/06/21 02:09:42;;;;;;;7.30;4.00;;;11.80;97.30;;;;;;5003851;28;20452;-87
2022/06/21 02:12:11;;;;;;;5.73;3.93;;;11.70;97.30;;;;;;4995314;28;20985;-87
2022/06/21 02:14:42;;;;;;;7.00;4.30;;;11.70;97.30;;;;;;5004951;28;20427;-87
2022/06/21 02:17:22;;;;;;;5.03;4.10;;;11.70;97.30;;;;;;5012459;28;20434;-87
2022/06/21 02:19:51;;;;;;;7.10;4.10;;;11.70;97.30;;;;;;5013038;28;20434;-87
2022/06/21 02:22:23;;;;;;;6.90;4.77;;;11.70;97.30;;;;;;5012625;28;20423;-87
2022/06/21 02:24:51;;;;;;;5.77;4.13;;;11.70;97.30;;;;;;5012881;28;20438;-87
2022/06/21 02:27:20;;;;;;;5.27;3.73;;;11.70;97.30;;;;;;5012959;28;20562;-87
2022/06/21 02:29:54;;;;;;;8.10;5.03;;;11.70;97.30;;;;;;5009084;28;20526;-87
2022/06/21 02:32:29;;;;;;;9.30;4.67;;;11.70;97.30;;;;;;5012587;28;20447;-87
2022/06/21 02:35:18;;;;;;;8.70;4.17;;;11.70;97.30;;;;;;5012577;28;20414;-87
2022/06/21 02:37:46;;;;;;;7.97;3.97;;;11.70;97.30;;;;;;4993960;28;20458;-87
2022/06/21 02:40:19;;;;;;;10.70;4.70;;;11.70;97.30;;;;;;5010000;28;20427;-87
2022/06/21 02:42:46;;;;;;;11.97;4.80;;;11.70;97.30;;;;;;5030390;28;20938;-87
2022/06/21 02:45:40;;;;;;;14.77;4.60;;;11.70;97.30;;;;;;5013122;28;20424;-87
2022/06/21 02:48:12;;;;;;;9.10;4.57;;;11.60;97.30;;;;;;4993314;28;20476;-87
2022/06/21 02:50:55;;;;;;;13.50;4.17;;;11.60;97.30;;;;;;5013134;28;20469;-87
2022/06/21 02:53:27;;;;;;;9.20;5.10;;;11.60;97.30;;;;;;5013373;28;20455;-87
2022/06/21 02:56:16;;;;;;;9.50;4.93;;;11.60;97.30;;;;;;5000768;28;20484;-86
2022/06/21 02:58:49;;;;;;;10.73;4.40;;;11.50;97.30;;;;;;5009274;28;20447;-86
2022/06/21 03:01:27;;;;;;;15.33;4.70;;;11.50;97.30;;;;;;5012343;28;20428;-86
2022/06/21 03:03:55;;;;;;;7.70;5.00;;;11.40;97.30;;;;;;5015134;28;20532;-87
2022/06/21 03:06:23;;;;;;;12.13;4.40;;;11.30;97.30;;;;;;5014288;28;20789;-86
2022/06/21 03:08:57;;;;;;;9.17;4.97;;;11.30;97.30;;;;;;5014680;28;20437;-87
2022/06/21 03:11:28;;;;;;;9.73;4.50;;;11.30;97.30;;;;;;5014267;28;20425;-85
2022/06/21 03:13:55;;;;;;;12.47;5.07;;;11.30;97.30;;;;;;5006738;28;20467;-86
2022/06/21 03:16:22;;;;;;;8.13;4.60;;;11.20;97.30;;;;;;5011669;28;20510;-86
2022/06/21 03:18:54;;;;;;;10.37;5.50;;;11.20;97.30;;;;;;5014606;28;20438;-87
2022/06/21 03:21:40;;;;;;;6.00;4.60;;;11.20;97.30;;;;;;5014943;28;20426;-87
2022/06/21 03:24:15;;;;;;;13.20;5.10;;;11.30;97.30;;;;;;5014661;28;20796;-87
2022/06/21 03:26:44;;;;;;;10.70;4.33;;;11.40;97.30;;;;;;5015096;28;20823;-87
2022/06/21 03:29:10;;;;;;;9.60;4.93;;;11.40;97.30;;;;;;5011714;28;20889;-87
2022/06/21 03:31:44;;;;;;;10.30;5.00;;;11.40;97.30;;;;;;5011019;28;20428;-88
2022/06/21 03:34:16;;;;;;;8.47;4.93;;;11.40;97.30;;;;;;4999493;28;20427;-87
2022/06/21 03:36:43;;;;;;;11.33;4.30;;;11.40;97.30;;;;;;5014634;28;20878;-87
2022/06/21 03:39:14;;;;;;;10.47;4.43;;;11.40;97.30;;;;;;5014802;28;20746;-87
2022/06/21 03:41:44;;;;;;;8.20;5.03;;;11.40;97.30;;;;;;5014296;28;20419;-89
2022/06/21 03:44:27;;;;;;;5.80;4.43;;;11.40;97.30;;;;;;5015730;28;20944;-87
2022/06/21 03:47:00;;;;;;;17.50;6.13;;;11.40;97.30;;;;;;4996043;28;20993;-87
2022/06/21 03:49:44;;;;;;;8.93;5.30;;;11.40;97.30;;;;;;4997916;28;20459;-87
2022/06/21 03:52:41;;;;;;;11.33;5.13;;;11.40;97.30;;;;;;5006336;28;20483;-88
2022/06/21 03:55:40;;;;;;;20.10;5.07;;;11.40;97.30;;;;;;5027571;28;20788;-88
2022/06/21 03:58:08;;;;;;;9.70;5.20;;;11.40;97.30;;;;;;5012632;28;20847;-88
2022/06/21 04:00:47;;;;;;;11.33;5.37;;;11.40;97.30;;;;;;5017561;28;20427;-89
2022/06/21 04:03:45;;;;;;;7.33;4.90;;;11.40;97.30;;;;;;5005552;28;20426;-87
2022/06/21 04:06:20;;;;;;;15.97;6.10;;;11.40;97.30;;;;;;5016846;28;20434;-86
2022/06/21 04:09:09;;;;;;;15.37;5.57;;;11.40;97.30;;;;;;5018592;28;20435;-87
2022/06/21 04:11:42;;;;;;;11.47;5.10;;;11.40;97.30;;;;;;5033549;28;20431;-87
2022/06/21 04:14:26;;;;;;;10.57;5.03;;;11.50;97.30;;;;;;5014080;28;20804;-87
2022/06/21 04:17:11;;;;;;;9.53;4.90;;;11.60;97.30;;;;;;5027970;28;20941;-87
2022/06/21 04:19:41;;;;;;;11.20;5.23;;;11.60;97.30;;;;;;4997800;28;20515;-86
2022/06/21 04:22:28;;;;;;;7.77;5.77;;;11.70;97.30;;;;;;5014220;28;20440;-88
2022/06/21 04:25:05;;;;;;;10.30;5.90;;;11.70;97.30;;;;;;5019100;28;20438;-87
2022/06/21 04:27:52;;;;;;;9.37;5.23;;;11.70;97.30;;;;;;5032620;28;20819;-85
2022/06/21 04:30:41;;;;;;;8.27;5.17;;;11.70;97.30;;;;;;5012637;28;20463;-87
2022/06/21 04:33:30;;;;;;;12.93;5.40;;;11.70;97.30;;;;;;5015170;28;20412;-88
2022/06/21 04:36:10;;;;;;;9.80;5.47;;;11.80;97.30;;;;;;5014052;28;20424;-87
2022/06/21 04:38:50;;;;;;;9.20;5.60;;;11.80;97.30;;;;;;5011121;28;20506;-87
2022/06/21 04:41:25;;;;;;;6.67;5.03;;;11.80;97.30;;;;;;5032417;28;20509;-88
2022/06/21 04:43:58;;;;;;;10.30;5.10;;;11.90;97.30;;;;;;5006455;28;20419;-87
2022/06/21 04:46:36;;;;;;;8.40;5.50;;;11.90;97.30;;;;;;5033028;28;20455;-89
2022/06/21 04:49:21;;;;;;;10.03;5.50;;;11.90;97.30;;;;;;5014781;28;20449;-86
2022/06/21 04:52:03;;;;;;;11.80;5.07;;;12.00;97.30;;;;;;5013569;28;20427;-87
2022/06/21 04:54:32;;;;;;;11.23;6.33;;;12.00;97.30;;;;;;5010605;28;20531;-86
2022/06/21 04:57:12;;;;;;;13.17;5.70;;;12.00;97.30;;;;;;5004955;28;20442;-85
2022/06/21 04:59:43;;;;;;;11.87;6.10;;;12.10;97.30;;;;;;5011735;28;20423;-86
2022/06/21 05:02:44;;;;;;;11.03;5.90;;;12.10;97.30;;;;;;5006063;28;20486;-87
2022/06/21 05:05:20;;;;;;;13.33;6.70;;;12.20;97.30;;;;;;5002257;28;20476;-87
2022/06/21 05:07:54;;;;;;;18.47;5.70;;;12.30;97.30;;;;;;5010129;28;20977;-87
2022/06/21 05:10:25;;;;;;;7.80;5.20;;;12.30;97.30;;;;;;5029511;28;20554;-86
2022/06/21 05:12:52;;;;;;;10.67;4.77;;;12.40;97.30;;;;;;5014515;28;20851;-86
2022/06/21 05:15:28;;;;;;;8.47;4.50;;;12.40;97.30;;;;;;5012875;28;20497;-87
2022/06/21 05:18:00;;;;;;;10.30;6.43;;;12.50;97.30;;;;;;5030703;28;20442;-88
2022/06/21 05:20:30;;;;;;;11.90;5.00;;;12.50;97.30;;;;;;4999006;28;20458;-88
2022/06/21 05:23:01;;;;;;;16.23;4.70;;;12.50;97.30;;;;;;5002448;28;20516;-88
2022/06/21 05:25:29;;;;;;;8.57;4.97;;;12.60;97.30;;;;;;4998249;28;20834;-87
2022/06/21 05:27:59;;;;;;;7.37;4.87;;;12.70;97.30;;;;;;5000423;28;20439;-88
2022/06/21 05:30:43;;;;;;;11.60;5.53;;;12.70;97.30;;;;;;4999363;28;20478;-87
2022/06/21 05:33:24;;;;;;;14.13;5.30;;;12.70;97.30;;;;;;5000676;28;20412;-87
2022/06/21 05:35:50;;;;;;;15.83;5.50;;;12.80;97.30;;;;;;5012540;28;20999;-87
2022/06/21 05:38:26;;;;;;;19.80;5.87;;;12.80;97.30;;;;;;5011475;28;20526;-86
2022/06/21 05:40:56;;;;;;;14.30;4.67;;;12.90;97.30;;;;;;5013211;28;20939;-87
2022/06/21 05:43:46;;;;;;;9.83;5.03;;;13.00;97.30;;;;;;5013526;28;20493;-87
2022/06/21 05:46:19;;;;;;;11.23;4.57;;;13.00;97.30;;;;;;5012354;28;20412;-87
2022/06/21 05:48:45;;;;;;;11.63;5.40;;;13.10;97.30;;;;;;5010439;28;20795;-87
2022/06/21 05:51:22;;;;;;;14.53;4.90;;;13.10;97.30;;;;;;5013844;28;20424;-87
2022/06/21 05:53:52;;;;;;;14.47;5.60;;;13.10;97.30;;;;;;5001739;28;20436;-87
2022/06/21 05:56:22;;;;;;;12.60;4.67;;;13.20;97.30;;;;;;5001331;28;20429;-87
2022/06/21 05:58:54;;;;;;;14.67;5.10;;;13.30;97.30;;;;;;5000366;28;20471;-87
2022/06/21 06:01:41;;;;;;;10.90;4.30;;;13.30;97.30;;;;;;5005343;28;20400;-87
2022/06/21 06:04:42;;;;;;;14.73;5.47;;;13.40;97.30;;;;;;5009921;28;20424;-87
2022/06/21 06:07:26;;;;;;;14.57;4.90;;;13.50;97.30;;;;;;5013743;28;20435;-87
2022/06/21 06:09:56;;;;;;;10.30;4.43;;;13.50;97.30;;;;;;4994564;28;20462;-86
2022/06/21 06:12:33;;;;;;;13.37;4.30;;;13.60;97.30;;;;;;4996701;28;21136;-87
2022/06/21 06:15:06;;;;;;;5.63;4.07;;;13.60;97.30;;;;;;5006488;28;20951;-87
2022/06/21 06:17:33;;;;;;;10.40;4.63;;;13.70;97.30;;;;;;4994493;28;20444;-87
2022/06/21 06:20:01;;;;;;;9.30;4.77;;;13.70;97.30;;;;;;5011549;28;20831;-87
2022/06/21 06:22:42;;;;;;;12.53;4.30;;;13.80;97.30;;;;;;5005908;28;20427;-87
2022/06/21 06:25:20;;;;;;;11.97;3.90;;;13.90;97.30;;;;;;5011593;28;20419;-88
2022/06/21 06:28:06;;;;;;;10.50;3.93;;;14.00;97.30;;;;;;5013534;28;20443;-88
2022/06/21 06:30:47;;;;;;;11.83;4.30;;;14.10;97.30;;;;;;5002487;28;20466;-88
2022/06/21 06:33:35;;;;;;;9.70;4.63;;;14.20;97.30;;;;;;5031097;28;20411;-87
2022/06/21 06:36:14;;;;;;;8.30;3.87;;;14.30;97.30;;;;;;4997885;28;20411;-88
2022/06/21 06:38:41;;;;;;;9.33;4.20;;;14.20;97.30;;;;;;5012871;28;20411;-87
2022/06/21 06:41:23;;;;;;;10.70;4.40;;;14.30;97.30;;;;;;5012115;28;20439;-87
2022/06/21 06:44:01;;;;;;;22.33;4.73;;;14.30;97.30;;;;;;5013171;28;20528;-86
2022/06/21 06:46:31;;;;;;;9.83;4.20;;;14.30;97.30;;;;;;4999760;28;20470;-88
2022/06/21 06:49:24;;;;;;;14.00;5.30;;;14.30;97.30;;;;;;5012742;28;20423;-87
2022/06/21 06:52:00;;;;;;;10.53;3.87;;;14.30;97.30;;;;;;4993912;28;20419;-88
2022/06/21 06:54:38;;;;;;;11.10;4.33;;;14.40;97.30;;;;;;5011721;28;20477;-87
2022/06/21 06:57:49;;;;;;;13.90;5.87;;;14.40;97.30;;;;;;5010450;28;20428;-87
2022/06/21 07:00:41;;;;;;;12.23;4.90;;;14.40;97.30;;;;;;4996860;28;20474;-88
2022/06/21 07:03:17;;;;;;;8.43;4.13;;;14.40;97.30;;;;;;5003378;28;20418;-87
2022/06/21 07:06:10;;;;;;;12.03;4.80;;;14.50;97.30;;;;;;5012839;28;20462;-88
2022/06/21 07:08:39;;;;;;;9.20;4.60;;;14.50;97.30;;;;;;5012608;28;20481;-87
2022/06/21 07:11:14;;;;;;;7.37;3.80;;;14.60;97.30;;;;;;5009102;28;20539;-88
2022/06/21 07:13:40;;;;;;;7.37;3.20;;;14.60;97.30;;;;;;5013263;28;20407;-87
2022/06/21 07:16:12;;;;;;;6.43;3.50;;;14.70;97.30;;;;;;5012928;28;20427;-87
2022/06/21 07:18:59;;;;;;;13.43;3.90;;;14.70;97.30;;;;;;5012722;28;20696;-86
2022/06/21 07:21:26;;;;;;;9.60;3.73;;;14.80;97.30;;;;;;5012381;28;20427;-87
2022/06/21 07:23:54;;;;;;;8.20;3.70;;;15.00;97.30;;;;;;5013084;28;20888;-87
2022/06/21 07:26:28;;;;;;;7.43;3.60;;;15.10;97.30;;;;;;5016209;28;20681;-86
2022/06/21 07:29:18;;;;;;;8.10;3.33;;;15.00;97.30;;;;;;5003293;28;20473;-87
2022/06/21 07:31:49;;;;;;;7.00;3.07;;;15.00;97.30;;;;;;5032966;28;20547;-88
2022/06/21 07:34:21;;;;;;;5.93;3.40;;;15.10;97.30;;;;;;5016430;28;20451;-88
2022/06/21 07:37:18;;;;;;;7.43;3.60;;;15.20;97.30;;;;;;5016144;28;20854;-88
2022/06/21 07:40:15;;;;;;;5.73;3.00;;;15.30;97.30;;;;;;5015860;28;20411;-86
2022/06/21 07:42:47;;;;;;;9.50;3.50;;;15.40;97.30;;;;;;5015538;28;20415;-86
2022/06/21 07:45:18;;;;;;;6.07;3.00;;;15.40;97.30;;;;;;5033864;28;20505;-86
2022/06/21 07:48:06;;;;;;;11.10;3.63;;;15.50;97.30;;;;;;5013049;28;20474;-86
2022/06/21 07:50:38;;;;;;;6.83;2.97;;;15.60;97.30;;;;;;5012920;28;20463;-85
2022/06/21 07:53:09;;;;;;;11.70;2.93;;;15.70;97.30;;;;;;5031521;28;20433;-86
2022/06/21 07:55:42;;;;;;;7.07;2.90;;;15.80;97.30;;;;;;5015759;28;20419;-86
2022/06/21 07:58:15;;;;;;;6.00;2.77;;;15.90;97.30;;;;;;5015752;28;20628;-88
2022/06/21 08:09:22;;;;;;;8.97;2.87;;;15.90;97.30;;;;;;5033473;28;21019;-88
2022/06/21 08:11:49;;;;;;;10.37;3.00;;;15.90;97.30;;;;;;5012269;28;20936;-87
2022/06/21 08:14:17;;;;;;;7.20;3.10;;;16.00;97.30;;;;;;5015403;28;20419;-87
2022/06/21 08:17:09;;;;;;;7.73;2.90;;;16.10;97.00;;;;;;5004637;28;20444;-87
2022/06/21 08:19:46;;;;;;;8.27;3.63;;;16.10;96.00;;;;;;4995323;28;20543;-87
2022/06/21 08:22:17;;;;;;;39.17;5.63;;;16.20;96.00;;;;;;5011836;28;20462;-86
2022/06/21 08:25:07;;;;;;;5.40;3.13;;;16.40;97.00;;;;;;5005243;28;20646;-86
2022/06/21 08:27:47;;;;;;;9.90;3.13;;;16.50;96.30;;;;;;5002618;28;20515;-85
2022/06/21 08:30:30;;;;;;;13.97;3.80;;;16.50;96.10;;;;;;5015205;28;20459;-86
2022/06/21 08:33:07;;;;;;;11.93;3.20;;;16.50;95.80;;;;;;5015356;28;20426;-86
2022/06/21 08:35:38;;;;;;;10.93;3.20;;;16.50;95.50;;;;;;5014647;28;20416;-86
2022/06/21 08:38:07;;;;;;;9.73;2.93;;;16.60;95.60;;;;;;5014374;28;20431;-86
2022/06/21 08:41:04;;;;;;;5.17;3.10;;;16.70;95.10;;;;;;5014623;28;20499;-86
2022/06/21 08:43:42;;;;;;;6.77;3.00;;;16.80;94.50;;;;;;5015173;28;20438;-87
2022/06/21 08:46:32;;;;;;;10.17;3.13;;;17.00;94.70;;;;;;5015230;28;20429;-87
2022/06/21 08:49:19;;;;;;;9.70;3.10;;;17.10;94.20;;;;;;5005516;28;20481;-87
2022/06/21 08:51:45;;;;;;;5.27;2.97;;;17.10;93.70;;;;;;5008575;28;20447;-87
2022/06/21 08:54:43;;;;;;;10.37;2.70;;;17.10;92.90;;;;;;5024410;28;20431;-86
2022/06/21 08:57:39;;;;;;;5.97;2.93;;;17.10;93.30;;;;;;4969127;28;20193;-87
2022/06/21 09:00:25;;;;;;;5.93;2.63;;;17.20;94.10;;;;;;4995427;28;20420;-88
2022/06/21 09:03:24;;;;;;;5.33;2.73;;;17.30;92.10;;;;;;4997780;28;20475;-87
2022/06/21 09:06:12;;;;;;;8.70;3.33;;;17.40;92.70;;;;;;5014450;28;20465;-87
2022/06/21 09:08:58;;;;;;;10.87;3.37;;;17.50;92.70;;;;;;5003456;28;20416;-88
2022/06/21 09:11:44;;;;;;;4.73;2.70;;;17.50;92.60;;;;;;5002373;28;20423;-87
2022/06/21 09:14:38;;;;;;;4.00;2.47;;;17.50;90.70;;;;;;5014200;28;20466;-87
2022/06/21 09:17:37;;;;;;;11.83;3.07;;;17.40;90.60;;;;;;5014034;28;20441;-86
2022/06/21 09:20:32;;;;;;;9.10;2.77;;;17.50;90.30;;;;;;5014782;28;20481;-86
2022/06/21 09:23:15;;;;;;;2.70;2.50;;;17.50;90.60;;;;;;5004330;28;20872;-86
2022/06/21 09:26:07;;;;;;;6.20;2.80;;;17.60;90.00;;;;;;5001130;28;20446;-86
2022/06/21 09:28:44;;;;;;;4.90;2.83;;;17.60;91.30;;;;;;5013863;28;20647;-87
2022/06/21 09:32:04;;;;;;;7.93;2.57;;;17.70;91.10;;;;;;5003789;28;20473;-86
2022/06/21 09:34:42;;;;;;;7.47;2.60;;;17.80;89.90;;;;;;4955043;28;20446;-86
2022/06/21 09:37:08;;;;;;;8.10;2.23;;;17.80;89.30;;;;;;5002928;28;20440;-87
2022/06/21 09:40:19;;;;;;;6.50;3.63;;;17.90;89.40;;;;;;5007949;28;20429;-88
2022/06/21 09:42:48;;;;;;;6.00;2.03;;;17.90;88.60;;;;;;4991024;28;20416;-87
2022/06/21 09:45:21;;;;;;;6.30;2.10;;;18.00;88.30;;;;;;5013525;28;20431;-87
2022/06/21 09:48:09;;;;;;;3.37;1.97;;;18.10;89.40;;;;;;5010109;28;20468;-87
2022/06/21 09:50:46;;;;;;;6.83;2.40;;;18.20;88.40;;;;;;5009936;28;20846;-87
2022/06/21 09:53:29;;;;;;;6.70;2.77;;;18.20;89.20;;;;;;5011107;28;20409;-86
2022/06/21 09:56:13;;;;;;;7.77;3.70;;;18.30;90.90;;;;;;5000415;28;20785;-86
2022/06/21 09:58:49;;;;;;;9.80;2.87;;;18.40;89.60;;;;;;5003688;28;20925;-86
2022/06/21 10:01:34;;;;;;;4.00;2.60;;;18.50;89.10;;;;;;4994385;28;20423;-86
2022/06/21 10:04:23;;;;;;;7.83;2.47;;;18.60;88.20;;;;;;5024025;28;20419;-88
2022/06/21 10:07:29;;;;;;;6.50;2.20;;;18.70;87.80;;;;;;5003191;28;20529;-86
2022/06/21 10:10:25;;;;;;;5.00;2.43;;;18.90;86.90;;;;;;5013354;28;20458;-87
2022/06/21 10:13:03;;;;;;;7.43;2.03;;;18.90;86.50;;;;;;5013669;28;21015;-88
2022/06/21 10:15:39;;;;;;;5.17;2.43;;;19.00;86.70;;;;;;5015295;28;20431;-86
2022/06/21 10:18:23;;;;;;;4.20;1.93;;;19.10;85.90;;;;;;5012362;28;20859;-87
2022/06/21 10:21:03;;;;;;;5.93;2.40;;;19.20;85.70;;;;;;5009735;28;20476;-88
2022/06/21 10:23:36;;;;;;;5.47;2.30;;;19.30;87.30;;;;;;5021366;28;20431;-85
2022/06/21 10:26:17;;;;;;;4.40;2.00;;;19.40;87.50;;;;;;5008354;28;20428;-87
2022/06/21 10:29:01;;;;;;;6.30;1.93;;;19.50;85.10;;;;;;5019942;28;20689;-87
2022/06/21 10:32:10;;;;;;;5.17;2.63;;;19.50;84.10;;;;;;5017714;28;20418;-87
2022/06/21 10:34:59;;;;;;;3.00;1.80;;;19.60;86.20;;;;;;5011568;28;20415;-86
2022/06/21 10:37:43;;;;;;;3.97;2.40;;;19.80;85.50;;;;;;5006068;28;20443;-87
2022/06/21 10:40:38;;;;;;;7.83;2.43;;;19.90;85.70;;;;;;5002666;28;20506;-86
2022/06/21 10:43:35;;;;;;;5.27;2.50;;;20.10;84.90;;;;;;5014290;28;20928;-86
2022/06/21 10:46:13;;;;;;;2.43;2.07;;;20.20;84.70;;;;;;5035071;28;20835;-86
2022/06/21 10:48:59;;;;;;;3.37;2.00;;;20.30;84.50;;;;;;5014014;28;20430;-86
2022/06/21 10:51:38;;;;;;;4.50;2.07;;;20.30;84.10;;;;;;5011624;28;21071;-86
2022/06/21 10:54:40;;;;;;;4.30;2.07;;;20.40;83.90;;;;;;5009019;28;20499;-86
2022/06/21 10:57:38;;;;;;;5.33;2.50;;;20.50;82.40;;;;;;5001960;28;20538;-85
2022/06/21 11:03:11;;;;;;;3.90;1.83;;;20.70;81.10;;;;;;5032122;28;20429;-86
2022/06/21 11:05:43;;;;;;;3.70;2.00;;;20.70;82.30;;;;;;5030155;28;20418;-85
2022/06/21 11:08:40;;;;;;;4.40;2.20;;;20.80;83.10;;;;;;5013577;28;20435;-85
2022/06/21 11:11:34;;;;;;;3.60;1.90;;;20.90;83.70;;;;;;5011325;28;20866;-85
2022/06/21 11:14:12;;;;;;;3.00;1.67;;;21.10;83.30;;;;;;5014782;28;20426;-86
2022/06/21 11:16:51;;;;;;;1.93;1.80;;;21.10;81.00;;;;;;5015184;28;20427;-87
2022/06/21 11:19:39;;;;;;;3.30;1.97;;;21.10;80.20;;;;;;5014370;28;20794;-86
2022/06/21 11:22:37;;;;;;;3.30;2.03;;;21.00;79.50;;;;;;5013552;28;20426;-85
2022/06/21 11:25:19;;;;;;;2.90;2.00;;;21.00;80.70;;;;;;5028529;28;20442;-85
2022/06/21 11:28:31;;;;;;;2.47;1.93;;;21.00;80.80;;;;;;5010484;28;20446;-86
2022/06/21 11:31:04;;;;;;;5.40;2.10;;;21.10;80.80;;;;;;4990264;28;20618;-86
2022/06/21 11:33:51;;;;;;;7.37;2.23;;;21.20;81.80;;;;;;5015894;28;20717;-86
2022/06/21 11:36:52;;;;;;;3.30;2.53;;;21.40;81.00;;;;;;5015344;28;20411;-86
2022/06/21 11:39:24;;;;;;;2.70;1.70;;;21.50;82.20;;;;;;4999742;28;20425;-86
2022/06/21 11:42:14;;;;;;;4.23;1.60;;;21.70;79.00;;;;;;5016243;28;20429;-86
2022/06/21 11:44:42;;;;;;;5.23;1.80;;;21.80;80.70;;;;;;5012684;28;20424;-86
2022/06/21 11:47:15;;;;;;;4.40;2.03;;;22.00;80.70;;;;;;5015742;28;20495;-88
2022/06/21 11:50:10;;;;;;;3.77;1.87;;;22.00;78.70;;;;;;5015901;28;20508;-85
2022/06/21 11:53:03;;;;;;;3.53;2.00;;;22.00;80.10;;;;;;5015791;28;20450;-85
2022/06/21 11:55:54;;;;;;;3.03;1.70;;;22.10;79.20;;;;;;5005711;28;20419;-87
2022/06/21 11:58:29;;;;;;;3.67;2.00;;;22.10;77.10;;;;;;5014787;28;20477;-85
2022/06/21 12:01:19;;;;;;;2.70;1.83;;;22.20;78.90;;;;;;5033502;28;20403;-86
2022/06/21 12:04:02;;;;;;;4.60;2.10;;;22.30;78.80;;;;;;5006800;28;20415;-87
2022/06/21 12:07:03;;;;;;;3.60;2.00;;;22.40;77.90;;;;;;5009322;28;20514;-87
2022/06/21 12:09:31;;;;;;;4.13;1.97;;;22.60;77.80;;;;;;4997899;28;20446;-87
2022/06/21 12:12:39;;;;;;;2.73;2.00;;;22.80;78.50;;;;;;5002686;28;20412;-88
2022/06/21 12:15:45;;;;;;;5.23;1.90;;;22.90;78.20;;;;;;5007090;28;20791;-86
2022/06/21 12:18:20;;;;;;;6.97;2.60;;;23.00;78.70;;;;;;4986901;28;20466;-85
2022/06/21 12:20:51;;;;;;;3.70;2.17;;;23.20;80.50;;;;;;5015263;28;20971;-85
2022/06/21 12:23:20;;;;;;;3.30;2.10;;;23.40;79.30;;;;;;5015226;28;20423;-87
2022/06/21 12:25:46;;;;;;;3.70;1.53;;;23.50;79.30;;;;;;5015136;28;20444;-87
2022/06/21 12:28:20;;;;;;;4.77;1.67;;;23.60;77.60;;;;;;5032674;28;20435;-86
2022/06/21 12:30:47;;;;;;;3.07;2.07;;;23.70;74.90;;;;;;5004761;28;20804;-88
2022/06/21 12:33:16;;;;;;;3.63;1.70;;;23.80;73.70;;;;;;5014869;28;20412;-84
2022/06/21 12:35:47;;;;;;;2.27;2.07;;;23.80;73.40;;;;;;5011015;28;20516;-88
2022/06/21 12:38:21;;;;;;;3.57;1.83;;;23.90;74.50;;;;;;5031218;28;20424;-86
2022/06/21 12:41:31;;;;;;;2.43;1.83;;;24.10;76.20;;;;;;5021663;28;20419;-86
2022/06/21 12:44:15;;;;;;;3.33;1.73;;;24.20;76.30;;;;;;5014441;28;20423;-87
2022/06/21 12:46:50;;;;;;;11.20;2.00;;;24.30;73.40;;;;;;5007522;28;20470;-87
2022/06/21 12:49:46;;;;;;;3.87;1.73;;;24.50;72.40;;;;;;5006227;28;20420;-86
2022/06/21 12:52:25;;;;;;;2.50;1.63;;;24.40;73.20;;;;;;5014548;28;20430;-85
2022/06/21 12:55:00;;;;;;;3.77;1.40;;;24.40;72.80;;;;;;5025457;28;20408;-84
2022/06/21 12:57:48;;;;;;;4.70;1.90;;;24.40;72.30;;;;;;5014589;28;20967;-87
2022/06/21 13:00:25;;;;;;;1.90;1.90;;;24.30;72.00;;;;;;5017856;28;20421;-86
2022/06/21 13:03:41;;;;;;;2.23;1.60;;;24.30;71.00;;;;;;5009371;28;20419;-86
2022/06/21 13:06:35;;;;;;;1.83;1.40;;;24.50;71.30;;;;;;4975308;28;20934;-85
2022/06/21 13:09:36;;;;;;;3.40;1.67;;;24.60;70.10;;;;;;5001630;28;20436;-86
2022/06/21 13:12:30;;;;;;;3.10;1.60;;;24.70;70.80;;;;;;5008339;28;20430;-86
2022/06/21 13:15:20;;;;;;;3.60;1.40;;;24.80;71.60;;;;;;5014856;28;20920;-86
2022/06/21 13:18:03;;;;;;;3.40;1.73;;;24.80;71.90;;;;;;5007548;28;20474;-86
2022/06/21 13:20:58;;;;;;;2.40;1.40;;;25.00;72.70;;;;;;5008207;28;20418;-86
2022/06/21 13:23:23;;;;;;;3.10;1.50;;;25.10;71.50;;;;;;5004700;28;20857;-85
2022/06/21 13:26:10;;;;;;;6.37;1.90;;;25.20;72.90;;;;;;5000347;28;20432;-86
2022/06/21 13:28:48;;;;;;;3.03;1.70;;;25.30;73.00;;;;;;4985507;28;20185;-85
2022/06/21 13:31:25;;;;;;;2.20;2.03;;;25.40;73.80;;;;;;5001217;28;20458;-86
2022/06/21 13:33:53;;;;;;;2.33;1.57;;;25.40;72.10;;;;;;5010756;28;21241;-85
2022/06/21 13:36:28;;;;;;;4.00;2.20;;;25.30;72.50;;;;;;5011134;28;20407;-87
2022/06/21 13:39:13;;;;;;;2.13;1.70;;;25.30;72.10;;;;;;5010910;28;20514;-87
2022/06/21 13:45:01;;;;;;;2.30;1.50;;;25.30;72.00;;;;;;5018137;28;20410;-86
2022/06/21 13:47:57;;;;;;;5.90;1.77;;;25.20;70.30;;;;;;5012118;28;20596;-85
2022/06/21 13:50:51;;;;;;;3.33;1.57;;;25.20;71.90;;;;;;5013900;28;20849;-85
2022/06/21 13:53:51;;;;;;;7.33;1.67;;;25.40;73.00;;;;;;5001467;28;20885;-86
2022/06/21 13:56:28;;;;;;;2.90;1.60;;;25.60;73.50;;;;;;4992509;28;20471;-85
2022/06/21 13:58:59;;;;;;;2.47;1.50;;;25.60;73.10;;;;;;5012488;28;20987;-86